createdAt,value
2019-04-16T00:00:36.998Z,12.10
2019-04-16T00:05:45.496Z,11.63
2019-04-16T00:11:07.106Z,10.05
2019-04-16T00:16:13.763Z,10.65
2019-04-16T00:21:41.887Z,11.50
2019-04-16T00:26:58.067Z,12.10
2019-04-16T00:32:18.428Z,10.72
2019-04-16T00:37:23.867Z,11.20
2019-04-16T00:42:30.427Z,11.60
2019-04-16T00:47:35.977Z,11.75
2019-04-16T00:52:43.228Z,11.28
2019-04-16T00:57:49.281Z,12.63
2019-04-16T01:02:55.916Z,10.80
2019-04-16T01:08:01.421Z,13.40
2019-04-16T01:13:07.263Z,12.40
2019-04-16T01:18:12.934Z,11.30
2019-04-16T01:23:18.480Z,10.82
2019-04-16T01:28:29.411Z,11.38
2019-04-16T01:33:53.561Z,11.18
2019-04-16T01:39:14.937Z,10.85
2019-04-16T01:44:10.418Z,10.75
2019-04-16T01:49:16.000Z,10.95
2019-04-16T01:54:22.915Z,10.58
2019-04-16T01:59:28.840Z,11.63
2019-04-16T02:04:34.197Z,10.83
2019-04-16T02:09:39.824Z,10.98
2019-04-16T02:14:47.374Z,10.50
2019-04-16T02:19:53.667Z,10.28
2019-04-16T02:24:59.293Z,11.30
2019-04-16T02:30:05.900Z,11.25
2019-04-16T02:35:11.437Z,11.68
2019-04-16T02:40:18.773Z,13.32
2019-04-16T02:45:24.598Z,13.15
2019-04-16T02:51:05.251Z,11.75
2019-04-16T02:56:26.254Z,11.97
2019-04-16T03:01:56.898Z,10.98
2019-04-16T03:07:03.337Z,11.38
2019-04-16T03:12:09.211Z,14.55
2019-04-16T03:17:32.501Z,13.60
2019-04-16T03:22:37.958Z,11.48
2019-04-16T03:27:43.228Z,12.85
2019-04-16T03:32:50.232Z,14.33
2019-04-16T03:37:55.603Z,11.20
2019-04-16T03:43:03.959Z,10.63
2019-04-16T03:48:08.086Z,11.43
2019-04-16T03:53:16.639Z,12.17
2019-04-16T03:58:20.672Z,13.00
2019-04-16T04:03:26.943Z,11.97
2019-04-16T04:08:32.506Z,11.80
2019-04-16T04:13:37.895Z,12.43
2019-04-16T04:18:43.962Z,12.58
2019-04-16T04:23:50.635Z,12.58
2019-04-16T04:28:56.277Z,12.43
2019-04-16T04:34:01.803Z,15.32
2019-04-16T04:39:09.956Z,12.13
2019-04-16T04:44:14.824Z,12.40
2019-04-16T04:49:20.243Z,13.70
2019-04-16T04:54:26.054Z,14.15
2019-04-16T04:59:31.346Z,14.73
2019-04-16T05:04:55.600Z,13.13
2019-04-16T05:10:01.202Z,14.45
2019-04-16T05:15:06.925Z,13.90
2019-04-16T05:20:15.447Z,14.03
2019-04-16T05:25:19.608Z,14.05
2019-04-16T05:30:24.922Z,16.32
2019-04-16T05:35:30.476Z,16.23
2019-04-16T05:40:35.855Z,13.28
2019-04-16T05:45:41.326Z,12.75
2019-04-16T05:50:46.661Z,16.00
2019-04-16T05:56:29.031Z,12.53
2019-04-16T06:01:42.440Z,13.98
2019-04-16T06:06:48.915Z,15.60
2019-04-16T06:11:54.198Z,14.17
2019-04-16T06:17:17.452Z,13.78
2019-04-16T06:22:37.428Z,14.97
2019-04-16T06:27:58.068Z,12.97
2019-04-16T06:33:06.400Z,11.00
2019-04-16T06:38:36.751Z,11.45
2019-04-16T06:43:45.154Z,11.37
2019-04-16T06:49:14.370Z,14.18
2019-04-16T06:54:34.557Z,11.25
2019-04-16T06:59:59.589Z,11.53
2019-04-16T07:05:21.630Z,12.60
2019-04-16T07:10:43.719Z,12.50
2019-04-16T07:15:37.622Z,10.87
2019-04-16T07:20:45.716Z,11.38
2019-04-16T07:25:51.120Z,12.88
2019-04-16T07:31:25.915Z,11.53
2019-04-16T07:36:40.026Z,11.60
2019-04-16T07:42:10.757Z,11.50
2019-04-16T07:47:33.253Z,11.97
2019-04-16T07:53:03.684Z,12.25
2019-04-16T07:58:09.090Z,11.70
2019-04-16T08:03:15.418Z,12.23
2019-04-16T08:08:24.300Z,11.63
2019-04-16T08:13:33.262Z,12.82
2019-04-16T08:18:47.581Z,12.28
2019-04-16T08:24:06.143Z,15.10
2019-04-16T08:29:11.451Z,14.60
2019-04-16T08:34:17.145Z,13.07
2019-04-16T08:39:23.436Z,13.03
2019-04-16T08:44:29.111Z,14.33
2019-04-16T08:49:34.428Z,14.60
2019-04-16T08:54:40.314Z,13.83
2019-04-16T08:59:45.687Z,13.62
2019-04-16T09:04:51.407Z,13.77
2019-04-16T09:09:57.958Z,13.95
2019-04-16T09:15:05.242Z,15.23
2019-04-16T09:20:16.192Z,15.23
2019-04-16T09:25:42.551Z,14.55
2019-04-16T09:31:09.388Z,15.00
2019-04-16T09:36:49.820Z,15.50
2019-04-16T09:41:56.209Z,15.20
2019-04-16T09:47:05.064Z,14.53
2019-04-16T09:52:09.583Z,17.15
2019-04-16T09:57:14.959Z,15.32
2019-04-16T10:02:23.800Z,16.80
2019-04-16T10:07:29.170Z,15.45
2019-04-16T10:12:34.900Z,15.13
2019-04-16T10:17:40.456Z,15.32
2019-04-16T10:22:45.870Z,17.70
2019-04-16T10:27:57.782Z,16.07
2019-04-16T10:33:03.051Z,16.30
2019-04-16T10:38:27.099Z,16.80
2019-04-16T10:43:48.818Z,16.03
2019-04-16T10:49:13.066Z,16.48
2019-04-16T10:54:43.697Z,17.62
2019-04-16T11:00:12.352Z,16.20
2019-04-16T11:05:35.496Z,18.52
2019-04-16T11:10:40.909Z,15.88
2019-04-16T11:15:46.473Z,16.65
2019-04-16T11:20:51.963Z,16.80
2019-04-16T11:25:57.297Z,17.57
2019-04-16T11:31:04.965Z,18.63
2019-04-16T11:36:18.850Z,17.73
2019-04-16T11:41:17.336Z,18.00
2019-04-16T11:46:22.820Z,19.75
2019-04-16T11:51:29.550Z,19.33
2019-04-16T11:56:35.895Z,18.83
2019-04-16T12:02:03.190Z,18.42
2019-04-16T12:07:34.855Z,18.10
2019-04-16T12:13:08.401Z,18.12
2019-04-16T12:18:44.896Z,16.33
2019-04-16T12:24:21.182Z,15.93
2019-04-16T12:29:46.177Z,15.05
2019-04-16T12:35:16.346Z,14.58
2019-04-16T12:40:46.563Z,15.23
2019-04-16T12:46:13.806Z,14.45
2019-04-16T12:51:29.668Z,17.00
2019-04-16T12:56:52.703Z,15.00
2019-04-16T13:02:32.325Z,15.95
2019-04-16T13:07:48.754Z,15.48
2019-04-16T13:13:20.163Z,13.83
2019-04-16T13:18:33.443Z,12.70
2019-04-16T13:24:02.243Z,11.13
2019-04-16T13:29:10.917Z,9.08
2019-04-16T13:34:18.596Z,9.67
2019-04-16T13:39:35.718Z,9.17
2019-04-16T13:44:47.849Z,8.20
2019-04-16T13:50:15.304Z,8.53
2019-04-16T13:55:34.272Z,9.13
2019-04-16T14:00:43.973Z,10.40
2019-04-16T14:05:49.360Z,10.10
2019-04-16T14:10:55.042Z,9.47
2019-04-16T14:16:00.696Z,9.75
2019-04-16T14:21:06.023Z,10.40
2019-04-16T14:26:11.464Z,10.35
2019-04-16T14:31:17.905Z,10.28
2019-04-16T14:36:24.098Z,9.73
2019-04-16T14:41:29.578Z,9.25
2019-04-16T14:46:36.298Z,10.53
2019-04-16T14:51:41.753Z,10.10
2019-04-16T14:56:54.822Z,8.35
2019-04-16T15:02:09.440Z,9.73
2019-04-16T15:07:20.564Z,9.23
2019-04-16T15:12:44.867Z,10.55
2019-04-16T15:18:09.136Z,10.30
2019-04-16T15:23:33.145Z,8.87
2019-04-16T15:28:47.207Z,8.45
2019-04-16T15:34:11.725Z,9.65
2019-04-16T15:39:22.175Z,10.63
2019-04-16T15:44:40.789Z,9.70
2019-04-16T15:49:55.709Z,10.03
2019-04-16T15:55:24.590Z,14.47
2019-04-16T16:00:47.638Z,11.27
2019-04-16T16:05:58.005Z,11.93
2019-04-16T16:11:06.725Z,13.30
2019-04-16T16:16:17.440Z,14.38
2019-04-16T16:21:19.624Z,13.50
2019-04-16T16:26:24.903Z,12.73
2019-04-16T16:31:33.590Z,13.20
2019-04-16T16:36:40.475Z,13.13
2019-04-16T16:41:46.612Z,14.20
2019-04-16T16:47:00.768Z,13.40
2019-04-16T16:52:26.801Z,8.40
2019-04-16T16:57:35.842Z,5.42
2019-04-16T17:02:50.602Z,6.58
2019-04-16T17:07:55.942Z,4.65
2019-04-16T17:13:01.430Z,4.30
2019-04-16T17:18:06.929Z,5.25
2019-04-16T17:23:16.492Z,4.00
2019-04-16T17:28:19.563Z,4.50
2019-04-16T17:33:24.859Z,4.10
2019-04-16T17:38:30.320Z,5.20
2019-04-16T17:44:02.262Z,7.20
2019-04-16T17:49:26.757Z,4.53
2019-04-16T17:54:38.456Z,11.75
2019-04-16T17:59:51.216Z,13.48
2019-04-16T18:05:13.010Z,12.30
2019-04-16T18:10:46.805Z,7.35
2019-04-16T18:16:07.394Z,6.47
2019-04-16T18:21:30.544Z,8.83
2019-04-16T18:27:07.068Z,21.33
2019-04-16T18:32:35.116Z,8.85
2019-04-16T18:37:50.304Z,6.67
2019-04-16T18:43:29.622Z,12.07
2019-04-16T18:48:36.730Z,5.80
2019-04-16T18:53:43.424Z,13.28
2019-04-16T18:58:49.419Z,28.25
2019-04-16T19:03:55.362Z,17.30
2019-04-16T19:09:01.364Z,6.70
2019-04-16T19:14:10.169Z,17.33
2019-04-16T19:19:15.507Z,22.80
2019-04-16T19:24:21.340Z,18.55
2019-04-16T19:29:27.605Z,14.00
2019-04-16T19:34:32.999Z,6.97
2019-04-16T19:39:39.369Z,9.00
2019-04-16T19:44:45.136Z,8.58
2019-04-16T19:49:50.929Z,12.00
2019-04-16T19:54:56.454Z,6.60
2019-04-16T20:00:01.984Z,6.45
2019-04-16T20:05:08.329Z,7.75
2019-04-16T20:10:14.334Z,7.75
2019-04-16T20:15:20.382Z,7.62
2019-04-16T20:20:26.177Z,9.43
2019-04-16T20:25:32.114Z,8.63
2019-04-16T20:30:38.758Z,8.33
2019-04-16T20:35:44.907Z,8.05
2019-04-16T20:40:50.977Z,12.18
2019-04-16T20:45:56.797Z,9.28
2019-04-16T20:51:03.156Z,10.15
2019-04-16T20:56:10.702Z,13.10
2019-04-16T21:01:32.225Z,11.97
2019-04-16T21:06:24.523Z,12.43
2019-04-16T21:11:29.907Z,10.33
2019-04-16T21:16:35.459Z,9.08
2019-04-16T21:21:41.203Z,9.30
2019-04-16T21:26:51.016Z,8.35
2019-04-16T21:32:00.319Z,8.68
2019-04-16T21:37:34.522Z,9.55
2019-04-16T21:42:40.028Z,10.40
2019-04-16T21:47:45.899Z,8.68
2019-04-16T21:52:55.020Z,9.98
2019-04-16T21:57:58.575Z,7.28
2019-04-16T22:03:09.136Z,7.30
2019-04-16T22:08:13.474Z,8.48
2019-04-16T22:13:20.066Z,7.37
2019-04-16T22:18:25.639Z,8.80
2019-04-16T22:23:31.055Z,8.58
2019-04-16T22:28:37.008Z,7.42
2019-04-16T22:33:42.412Z,6.50
2019-04-16T22:38:50.946Z,6.30
2019-04-16T22:44:17.686Z,6.08
2019-04-16T22:49:23.346Z,6.03
2019-04-16T22:54:28.775Z,5.22
2019-04-16T22:59:39.086Z,5.20
2019-04-16T23:04:42.107Z,5.70
2019-04-16T23:09:48.681Z,5.05
2019-04-16T23:14:54.659Z,4.90
2019-04-16T23:20:00.373Z,4.83
2019-04-16T23:25:05.912Z,4.70
2019-04-16T23:30:11.442Z,4.72
2019-04-16T23:35:16.966Z,4.70
2019-04-16T23:40:22.413Z,5.33
2019-04-16T23:45:45.419Z,5.20
2019-04-16T23:51:21.611Z,5.40
2019-04-16T23:56:33.814Z,4.22
